Casselton, North Dakota
Current Conditions -  °F | °C
As of 4:53 AM on Saturday 20 Dec 2014 (Local Time) from KFAR Reporting Station
Haze Haze  
Wind Chill: 23°   Ceiling: 700
Heat Index: 31°   Visibility: 6mi
Dew Point: 28°   Wind: 8mph
Humidity: 89%   Direction: 180°S
Pressure: 30.02"   Gusts: NA
Location:  46.9°N, 97.21°W
Report Text: KFAR 201053Z 18007KT 6SM BR OVC007 M01/M02 A3002 RMK AO2 SLP179 T10061022
Loading
Personal Weather Stations






























Interactive Weather Map New forecast layout! Learn more

10-Day Weather Forecast

Advertisements
Track Severe Weather on mobile